createdAt,value
2019-05-01T00:03:00.690Z,22.43
2019-05-01T00:05:55.541Z,20.67
2019-05-01T00:08:47.204Z,21.63
2019-05-01T00:11:37.664Z,23.20
2019-05-01T00:14:29.193Z,25.43
2019-05-01T00:17:20.909Z,25.50
2019-05-01T00:20:12.734Z,27.83
2019-05-01T00:23:02.981Z,27.23
2019-05-01T00:25:54.364Z,33.73
2019-05-01T00:28:45.374Z,36.50
2019-05-01T00:31:35.853Z,32.77
2019-05-01T00:34:28.246Z,34.40
2019-05-01T00:37:18.594Z,37.70
2019-05-01T00:40:10.996Z,36.17
2019-05-01T00:43:01.260Z,43.00
2019-05-01T00:45:51.506Z,43.17
2019-05-01T00:48:42.064Z,42.03
2019-05-01T00:51:33.265Z,43.20
2019-05-01T00:54:24.498Z,47.43
2019-05-01T00:57:34.422Z,51.93
2019-05-01T01:00:42.904Z,58.50
2019-05-01T01:03:25.432Z,56.87
2019-05-01T01:06:15.890Z,60.57
2019-05-01T01:09:08.483Z,56.43
2019-05-01T01:12:00.586Z,63.60
2019-05-01T01:14:50.975Z,58.97
2019-05-01T01:17:41.697Z,58.50
2019-05-01T01:20:32.108Z,62.53
2019-05-01T01:23:23.571Z,61.97
2019-05-01T01:26:15.703Z,59.80
2019-05-01T01:29:07.002Z,59.07
2019-05-01T01:31:57.547Z,60.07
2019-05-01T01:34:48.895Z,56.33
2019-05-01T01:37:39.479Z,63.93
2019-05-01T01:40:31.049Z,59.10
2019-05-01T01:43:57.053Z,64.33
2019-05-01T01:46:48.331Z,62.03
2019-05-01T01:49:39.024Z,65.63
2019-05-01T01:52:30.246Z,56.57
2019-05-01T01:55:23.079Z,60.67
2019-05-01T01:58:14.313Z,62.17
2019-05-01T02:01:26.998Z,61.07
2019-05-01T02:04:34.250Z,56.90
2019-05-01T02:07:24.556Z,52.83
2019-05-01T02:10:16.777Z,56.30
2019-05-01T02:13:07.705Z,53.60
2019-05-01T02:15:57.916Z,65.53
2019-05-01T02:18:48.277Z,54.60
2019-05-01T02:21:39.069Z,51.70
2019-05-01T02:24:30.589Z,61.53
2019-05-01T02:27:26.926Z,57.60
2019-05-01T02:30:19.212Z,54.13
2019-05-01T02:33:12.050Z,47.90
2019-05-01T02:36:05.200Z,51.00
2019-05-01T02:38:57.932Z,49.97
2019-05-01T02:41:52.563Z,53.10
2019-05-01T02:44:48.168Z,58.30
2019-05-01T02:47:41.764Z,55.40
2019-05-01T02:50:34.761Z,56.47
2019-05-01T02:53:27.331Z,52.30
2019-05-01T02:56:27.555Z,56.83
2019-05-01T02:59:19.554Z,54.47
2019-05-01T03:02:11.579Z,59.03
2019-05-01T03:05:02.921Z,50.27
2019-05-01T03:07:55.503Z,50.77
2019-05-01T03:10:46.482Z,57.17
2019-05-01T03:13:39.015Z,57.83
2019-05-01T03:16:29.396Z,54.47
2019-05-01T03:19:39.874Z,54.63
2019-05-01T03:22:50.423Z,52.43
2019-05-01T03:25:40.682Z,56.47
2019-05-01T03:28:32.194Z,53.20
2019-05-01T03:31:23.696Z,58.17
2019-05-01T03:34:15.568Z,62.97
2019-05-01T03:37:06.874Z,54.27
2019-05-01T03:39:58.758Z,52.70
2019-05-01T03:42:49.925Z,53.23
2019-05-01T03:45:41.705Z,58.27
2019-05-01T03:48:32.968Z,54.50
2019-05-01T03:51:24.035Z,48.67
2019-05-01T03:54:15.543Z,57.30
2019-05-01T03:57:05.993Z,52.53
2019-05-01T03:59:56.777Z,50.40
2019-05-01T04:03:07.438Z,44.77
2019-05-01T04:05:57.844Z,47.17
2019-05-01T04:08:50.012Z,42.67
2019-05-01T04:11:41.733Z,45.33
2019-05-01T04:14:33.478Z,42.20
2019-05-01T04:17:32.364Z,44.50
2019-05-01T04:20:22.740Z,39.17
2019-05-01T04:23:13.717Z,39.27
2019-05-01T04:26:04.481Z,41.20
2019-05-01T04:29:02.114Z,42.50
2019-05-01T04:31:58.264Z,43.77
2019-05-01T04:34:56.058Z,40.20
2019-05-01T04:37:46.732Z,38.73
2019-05-01T04:40:37.078Z,42.43
2019-05-01T04:43:28.497Z,43.87
2019-05-01T04:46:20.096Z,37.53
2019-05-01T04:49:11.275Z,39.37
2019-05-01T04:52:02.234Z,40.50
2019-05-01T04:54:52.878Z,39.33
2019-05-01T04:57:44.332Z,38.50
2019-05-01T05:00:36.844Z,38.00
2019-05-01T05:03:28.522Z,36.87
2019-05-01T05:06:18.692Z,36.97
2019-05-01T05:09:09.502Z,37.00
2019-05-01T05:12:02.546Z,38.10
2019-05-01T05:14:57.387Z,38.97
2019-05-01T05:17:48.378Z,35.37
2019-05-01T05:20:40.001Z,36.57
2019-05-01T05:23:32.079Z,36.77
2019-05-01T05:26:23.279Z,39.27
2019-05-01T05:29:15.769Z,41.50
2019-05-01T05:32:07.683Z,39.60
2019-05-01T05:35:00.526Z,37.97
2019-05-01T05:38:10.170Z,40.07
2019-05-01T05:41:01.994Z,38.90
2019-05-01T05:43:53.954Z,35.90
2019-05-01T05:46:44.553Z,38.97
2019-05-01T05:49:36.357Z,38.70
2019-05-01T05:52:38.689Z,36.47
2019-05-01T05:55:38.008Z,38.70
2019-05-01T05:58:37.320Z,37.07
2019-05-01T06:01:49.596Z,38.13
2019-05-01T06:05:08.679Z,35.30
2019-05-01T06:08:13.864Z,34.20
2019-05-01T06:11:35.548Z,33.60
2019-05-01T06:15:08.886Z,34.67
2019-05-01T06:18:11.067Z,36.67
2019-05-01T06:21:13.022Z,33.27
2019-05-01T06:24:24.796Z,37.57
2019-05-01T06:27:15.918Z,38.47
2019-05-01T06:30:11.212Z,38.90
2019-05-01T06:32:59.547Z,37.70
2019-05-01T06:35:50.152Z,37.60
2019-05-01T06:38:44.089Z,34.63
2019-05-01T06:41:42.848Z,32.97
2019-05-01T06:44:47.462Z,30.23
2019-05-01T06:47:45.841Z,30.97
2019-05-01T06:50:50.383Z,31.47
2019-05-01T06:53:41.369Z,30.07
2019-05-01T06:56:33.094Z,28.63
2019-05-01T06:59:31.642Z,28.70
2019-05-01T07:02:21.522Z,27.87
2019-05-01T07:05:15.105Z,26.60
2019-05-01T07:08:06.256Z,27.23
2019-05-01T07:10:57.305Z,30.73
2019-05-01T07:13:55.766Z,25.83
2019-05-01T07:16:46.441Z,33.07
2019-05-01T07:19:56.254Z,30.90
2019-05-01T07:22:47.795Z,30.63
2019-05-01T07:25:39.462Z,26.97
2019-05-01T07:28:34.369Z,25.03
2019-05-01T07:31:26.015Z,26.27
2019-05-01T07:34:17.489Z,27.80
2019-05-01T07:37:08.698Z,25.60
2019-05-01T07:39:59.223Z,25.30
2019-05-01T07:42:53.828Z,22.67
2019-05-01T07:45:56.529Z,28.47
2019-05-01T07:48:47.371Z,24.53
2019-05-01T07:51:42.382Z,24.33
2019-05-01T07:54:32.502Z,30.47
2019-05-01T07:57:24.023Z,26.37
2019-05-01T08:00:36.928Z,25.10
2019-05-01T08:03:26.021Z,25.23
2019-05-01T08:06:21.350Z,26.00
2019-05-01T08:09:11.325Z,24.70
2019-05-01T08:12:00.807Z,27.60
2019-05-01T08:14:53.573Z,30.43
2019-05-01T08:17:48.734Z,22.47
2019-05-01T08:20:41.540Z,24.73
2019-05-01T08:23:31.992Z,24.57
2019-05-01T08:26:23.178Z,24.10
2019-05-01T08:29:42.183Z,22.43
2019-05-01T08:32:40.964Z,23.20
2019-05-01T08:35:36.582Z,20.90
2019-05-01T08:38:24.514Z,25.60
2019-05-01T08:41:15.148Z,23.70
2019-05-01T08:44:06.892Z,23.60
2019-05-01T08:47:04.414Z,25.03
2019-05-01T08:50:09.962Z,22.87
2019-05-01T08:53:01.547Z,24.70
2019-05-01T08:55:52.299Z,25.50
2019-05-01T08:58:44.837Z,22.47
2019-05-01T09:01:35.669Z,24.20
2019-05-01T09:04:30.463Z,21.13
2019-05-01T09:07:22.581Z,23.63
2019-05-01T09:10:12.404Z,22.10
2019-05-01T09:13:03.600Z,19.60
2019-05-01T09:15:54.652Z,24.87
2019-05-01T09:18:45.067Z,22.10
2019-05-01T09:21:37.812Z,22.10
2019-05-01T09:24:29.443Z,22.23
2019-05-01T09:27:38.769Z,18.20
2019-05-01T09:30:33.284Z,20.10
2019-05-01T09:33:26.163Z,19.67
2019-05-01T09:36:17.870Z,20.60
2019-05-01T09:39:11.831Z,22.37
2019-05-01T09:42:03.402Z,22.30
2019-05-01T09:44:53.754Z,25.40
2019-05-01T09:47:44.105Z,22.27
2019-05-01T09:50:36.452Z,20.57
2019-05-01T09:53:41.149Z,21.60
2019-05-01T09:56:32.290Z,19.80
2019-05-01T09:59:25.035Z,21.07
2019-05-01T10:02:16.549Z,20.40
2019-05-01T10:05:07.977Z,20.77
2019-05-01T10:08:00.145Z,18.83
2019-05-01T10:10:51.698Z,21.37
2019-05-01T10:13:43.146Z,20.40
2019-05-01T10:16:34.299Z,22.50
2019-05-01T10:19:25.720Z,18.60
2019-05-01T10:22:17.014Z,22.80
2019-05-01T10:25:12.411Z,22.87
2019-05-01T10:28:07.321Z,20.77
2019-05-01T10:31:16.785Z,22.10
2019-05-01T10:34:19.574Z,18.60
2019-05-01T10:37:12.519Z,19.20
2019-05-01T10:40:04.789Z,21.20
2019-05-01T10:42:56.243Z,26.53
2019-05-01T10:45:51.098Z,19.00
2019-05-01T10:48:53.193Z,18.50
2019-05-01T10:51:52.423Z,17.90
2019-05-01T10:54:46.539Z,18.40
2019-05-01T10:57:43.900Z,19.20
2019-05-01T11:00:51.857Z,19.10
2019-05-01T11:03:43.269Z,19.70
2019-05-01T11:06:35.170Z,20.23
2019-05-01T11:09:26.849Z,17.27
2019-05-01T11:12:18.672Z,17.20
2019-05-01T11:15:11.074Z,20.30
2019-05-01T11:18:02.251Z,19.37
2019-05-01T11:20:53.984Z,18.83
2019-05-01T11:23:44.674Z,18.80
2019-05-01T11:26:36.511Z,19.53
2019-05-01T11:29:28.465Z,21.40
2019-05-01T11:32:54.635Z,18.20
2019-05-01T11:36:09.580Z,20.37
2019-05-01T11:39:05.699Z,18.20
2019-05-01T11:42:01.896Z,20.50
2019-05-01T11:44:54.230Z,16.83
2019-05-01T11:47:46.062Z,17.70
2019-05-01T11:50:38.531Z,16.47
2019-05-01T11:53:31.480Z,19.47
2019-05-01T11:56:22.673Z,20.57
2019-05-01T11:59:19.943Z,27.57
2019-05-01T12:02:11.600Z,21.43
2019-05-01T12:05:04.178Z,23.20
2019-05-01T12:08:02.685Z,21.83
2019-05-01T12:10:51.581Z,20.47
2019-05-01T12:13:44.270Z,22.23
2019-05-01T12:16:53.360Z,19.37
2019-05-01T12:19:45.472Z,18.67
2019-05-01T12:22:37.715Z,21.67
2019-05-01T12:25:30.534Z,24.50
2019-05-01T12:28:22.311Z,21.03
2019-05-01T12:31:13.039Z,21.17
2019-05-01T12:34:04.964Z,22.40
2019-05-01T12:37:17.562Z,24.23
2019-05-01T12:40:11.953Z,19.10
2019-05-01T12:43:02.516Z,18.33
2019-05-01T12:45:53.898Z,17.03
2019-05-01T12:48:45.116Z,17.03
2019-05-01T12:51:39.883Z,17.10
2019-05-01T12:54:41.558Z,18.03
2019-05-01T12:57:32.281Z,16.90
2019-05-01T13:00:39.986Z,16.20
2019-05-01T13:03:30.677Z,19.50
2019-05-01T13:06:22.661Z,19.20
2019-05-01T13:09:14.207Z,20.07
2019-05-01T13:12:05.968Z,18.07
2019-05-01T13:14:59.738Z,17.37
2019-05-01T13:17:54.942Z,18.10
2019-05-01T13:20:47.115Z,16.90
2019-05-01T13:23:41.868Z,21.13
2019-05-01T13:26:55.256Z,16.80
2019-05-01T13:29:55.569Z,20.40
2019-05-01T13:32:49.820Z,17.60
2019-05-01T13:35:41.863Z,17.63
2019-05-01T13:38:34.726Z,18.70
2019-05-01T13:41:26.828Z,16.23
2019-05-01T13:44:18.042Z,19.50
2019-05-01T13:47:10.207Z,19.70
2019-05-01T13:50:01.891Z,16.83
2019-05-01T13:52:53.258Z,16.90
2019-05-01T13:55:45.263Z,16.27
2019-05-01T13:58:36.590Z,15.10
2019-05-01T14:01:29.181Z,18.10
2019-05-01T14:04:21.562Z,15.33
2019-05-01T14:07:16.751Z,15.33
2019-05-01T14:10:06.138Z,14.77
2019-05-01T14:12:58.140Z,14.50
2019-05-01T14:15:50.347Z,15.63
2019-05-01T14:18:41.340Z,16.50
2019-05-01T14:21:41.374Z,14.93
2019-05-01T14:24:39.683Z,16.40
2019-05-01T14:27:31.446Z,13.30
2019-05-01T14:30:23.596Z,13.70
2019-05-01T14:33:16.138Z,16.03
2019-05-01T14:36:10.411Z,16.23
2019-05-01T14:39:01.060Z,14.40
2019-05-01T14:41:53.365Z,13.57
2019-05-01T14:44:45.016Z,15.23
2019-05-01T14:47:35.714Z,14.20
2019-05-01T14:50:26.443Z,13.80
2019-05-01T14:53:18.021Z,13.73
2019-05-01T14:56:09.624Z,13.40
2019-05-01T14:59:00.328Z,13.03
2019-05-01T15:01:51.949Z,14.30
2019-05-01T15:04:43.705Z,15.63
2019-05-01T15:07:43.354Z,14.43
2019-05-01T15:10:29.739Z,13.63
2019-05-01T15:13:33.256Z,13.47
2019-05-01T15:16:28.930Z,12.87
2019-05-01T15:19:23.819Z,13.07
2019-05-01T15:22:14.734Z,14.03
2019-05-01T15:25:07.023Z,13.23
2019-05-01T15:27:58.074Z,16.07
2019-05-01T15:30:50.039Z,14.50
2019-05-01T15:33:41.943Z,14.17
2019-05-01T15:36:36.569Z,13.10
2019-05-01T15:39:43.824Z,12.80
2019-05-01T15:43:00.751Z,13.43
2019-05-01T15:46:01.639Z,15.53
2019-05-01T15:48:53.399Z,14.10
2019-05-01T15:51:44.810Z,14.67
2019-05-01T15:54:39.164Z,12.87
2019-05-01T15:57:29.646Z,16.07
2019-05-01T16:00:21.612Z,13.57
2019-05-01T16:03:13.159Z,15.43
2019-05-01T16:06:08.137Z,14.27
2019-05-01T16:08:58.329Z,14.07
2019-05-01T16:12:12.795Z,13.73
2019-05-01T16:15:05.331Z,14.03
2019-05-01T16:17:56.389Z,13.47
2019-05-01T16:20:51.256Z,14.83
2019-05-01T16:23:51.236Z,14.93
2019-05-01T16:27:01.303Z,14.20
2019-05-01T16:29:58.833Z,16.83
2019-05-01T16:32:51.432Z,15.03
2019-05-01T16:35:44.938Z,17.17
2019-05-01T16:39:04.731Z,17.27
2019-05-01T16:41:59.181Z,16.63
2019-05-01T16:44:52.282Z,19.23
2019-05-01T16:47:45.217Z,20.00
2019-05-01T16:50:40.055Z,17.90
2019-05-01T16:53:32.783Z,18.43
2019-05-01T16:56:25.771Z,18.23
2019-05-01T16:59:17.745Z,17.43
2019-05-01T17:02:27.824Z,16.77
2019-05-01T17:05:42.227Z,18.63
2019-05-01T17:08:53.003Z,17.17
2019-05-01T17:11:44.476Z,16.87
2019-05-01T17:14:36.413Z,16.43
2019-05-01T17:17:28.269Z,17.43
2019-05-01T17:20:19.657Z,17.97
2019-05-01T17:23:12.141Z,18.77
2019-05-01T17:26:03.399Z,18.87
2019-05-01T17:28:56.205Z,18.07
2019-05-01T17:31:48.739Z,16.60
2019-05-01T17:34:40.930Z,16.43
2019-05-01T17:37:34.758Z,21.33
2019-05-01T17:40:27.530Z,16.17
2019-05-01T17:43:19.624Z,18.10
2019-05-01T17:46:12.067Z,18.30
2019-05-01T17:49:09.426Z,18.93
2019-05-01T17:51:57.216Z,15.63
2019-05-01T17:54:49.210Z,18.77
2019-05-01T17:57:41.616Z,16.40
2019-05-01T18:00:50.769Z,17.50
2019-05-01T18:04:12.117Z,15.60
2019-05-01T18:07:02.282Z,15.57
2019-05-01T18:09:55.686Z,17.20
2019-05-01T18:12:44.852Z,15.57
2019-05-01T18:15:34.890Z,16.47
2019-05-01T18:18:25.337Z,17.00
2019-05-01T18:21:17.325Z,17.50
2019-05-01T18:24:26.553Z,16.37
2019-05-01T18:27:45.189Z,20.30
2019-05-01T18:30:41.928Z,15.83
2019-05-01T18:33:33.244Z,17.47
2019-05-01T18:36:28.834Z,16.30
2019-05-01T18:39:26.980Z,17.50
2019-05-01T18:42:18.595Z,17.17
2019-05-01T18:45:13.109Z,16.00
2019-05-01T18:48:04.319Z,17.13
2019-05-01T18:50:57.132Z,16.43
2019-05-01T18:53:48.737Z,17.83
2019-05-01T18:56:40.315Z,20.83
2019-05-01T18:59:31.133Z,16.80
2019-05-01T19:02:25.035Z,16.23
2019-05-01T19:05:14.692Z,17.07
2019-05-01T19:08:06.945Z,16.30
2019-05-01T19:11:11.027Z,16.10
2019-05-01T19:13:50.525Z,17.17
2019-05-01T19:16:45.334Z,16.10
2019-05-01T19:19:33.335Z,18.13
2019-05-01T19:22:24.916Z,19.37
2019-05-01T19:25:17.882Z,18.90
2019-05-01T19:28:09.652Z,20.80
2019-05-01T19:31:01.372Z,17.63
2019-05-01T19:33:53.246Z,18.10
2019-05-01T19:36:45.316Z,18.63
2019-05-01T19:39:43.719Z,20.73
2019-05-01T19:42:29.963Z,19.30
2019-05-01T19:45:21.778Z,19.07
2019-05-01T19:48:13.321Z,19.20
2019-05-01T19:51:05.111Z,17.10
2019-05-01T19:53:56.793Z,16.00
2019-05-01T19:56:48.620Z,23.93
2019-05-01T19:59:39.366Z,17.57
2019-05-01T20:02:31.152Z,15.83
2019-05-01T20:05:27.074Z,16.57
2019-05-01T20:08:14.376Z,18.17
2019-05-01T20:11:05.273Z,16.37
2019-05-01T20:13:56.993Z,17.37
2019-05-01T20:16:49.425Z,17.37
2019-05-01T20:19:40.312Z,16.53
2019-05-01T20:22:31.770Z,16.10
2019-05-01T20:25:22.988Z,15.80
2019-05-01T20:28:14.304Z,15.97
2019-05-01T20:31:05.121Z,20.40
2019-05-01T20:33:55.928Z,16.30
2019-05-01T20:36:46.383Z,17.40
2019-05-01T20:39:37.575Z,16.20
2019-05-01T20:42:28.011Z,17.57
2019-05-01T20:45:19.652Z,16.40
2019-05-01T20:48:11.690Z,17.80
2019-05-01T20:51:04.385Z,18.90
2019-05-01T20:53:55.548Z,18.00
2019-05-01T20:57:01.224Z,17.57
2019-05-01T20:59:52.895Z,17.93
2019-05-01T21:02:45.350Z,14.83
2019-05-01T21:05:42.690Z,20.77
2019-05-01T21:08:51.537Z,17.63
2019-05-01T21:11:47.499Z,17.20
2019-05-01T21:14:36.475Z,18.27
2019-05-01T21:17:26.957Z,18.97
2019-05-01T21:20:18.208Z,24.20
2019-05-01T21:23:10.477Z,17.97
2019-05-01T21:26:03.845Z,19.33
2019-05-01T21:28:55.194Z,18.73
2019-05-01T21:32:05.811Z,18.60
2019-05-01T21:34:56.164Z,16.97
2019-05-01T21:37:47.557Z,16.50
2019-05-01T21:40:41.136Z,19.43
2019-05-01T21:43:36.923Z,17.87
2019-05-01T21:46:25.324Z,18.30
2019-05-01T21:49:15.603Z,18.23
2019-05-01T21:52:07.477Z,18.77
2019-05-01T21:54:58.141Z,15.63
2019-05-01T21:57:50.040Z,16.43
2019-05-01T22:00:42.397Z,18.10
2019-05-01T22:03:33.677Z,17.23
2019-05-01T22:06:23.981Z,18.30
2019-05-01T22:09:20.042Z,16.87
2019-05-01T22:12:13.045Z,17.40
2019-05-01T22:15:10.953Z,16.37
2019-05-01T22:18:14.438Z,17.37
2019-05-01T22:21:18.289Z,17.60
2019-05-01T22:24:28.553Z,19.17
2019-05-01T22:27:23.820Z,17.47
2019-05-01T22:30:27.577Z,16.20
2019-05-01T22:33:18.534Z,17.40
2019-05-01T22:36:09.486Z,16.47
2019-05-01T22:39:02.331Z,18.00
2019-05-01T22:41:54.372Z,18.43
2019-05-01T22:44:46.014Z,18.07
2019-05-01T22:47:37.211Z,18.00
2019-05-01T22:50:27.693Z,17.87
2019-05-01T22:53:19.030Z,19.10
2019-05-01T22:56:10.040Z,17.83
2019-05-01T22:59:00.510Z,17.13
2019-05-01T23:01:54.202Z,18.00
2019-05-01T23:04:48.414Z,16.40
2019-05-01T23:07:36.699Z,18.23
2019-05-01T23:10:28.051Z,18.83
2019-05-01T23:13:18.517Z,17.17
2019-05-01T23:16:09.878Z,17.50
2019-05-01T23:19:00.257Z,17.43
2019-05-01T23:21:52.597Z,19.70
2019-05-01T23:24:44.183Z,21.10
2019-05-01T23:27:35.689Z,19.70
2019-05-01T23:30:26.124Z,18.40
2019-05-01T23:33:17.519Z,16.70
2019-05-01T23:36:08.192Z,16.47
2019-05-01T23:38:59.592Z,17.83
2019-05-01T23:41:50.468Z,17.47
2019-05-01T23:44:42.943Z,19.50
2019-05-01T23:47:33.404Z,18.23
2019-05-01T23:50:25.158Z,20.40
2019-05-01T23:53:16.470Z,20.50
2019-05-01T23:56:07.882Z,20.00
2019-05-01T23:58:58.621Z,17.93
